sensor_id;sensor_type;location;lat;lon;timestamp;P1;durP1;ratioP1;P2;durP2;ratioP2
44694;SDS011;32845;59.422;17.930;2023-07-24T00:00:57;6.20;;;1.92;;
44694;SDS011;32845;59.422;17.930;2023-07-24T00:05:27;6.68;;;1.90;;
44694;SDS011;32845;59.422;17.930;2023-07-24T00:09:58;7.55;;;2.35;;
44694;SDS011;32845;59.422;17.930;2023-07-24T00:14:28;3.38;;;2.05;;
44694;SDS011;32845;59.422;17.930;2023-07-24T00:18:59;6.55;;;1.85;;
44694;SDS011;32845;59.422;17.930;2023-07-24T00:23:29;5.88;;;2.03;;
44694;SDS011;32845;59.422;17.930;2023-07-24T00:28:00;5.88;;;1.98;;
44694;SDS011;32845;59.422;17.930;2023-07-24T00:32:31;2.60;;;1.80;;
44694;SDS011;32845;59.422;17.930;2023-07-24T00:37:01;7.80;;;1.90;;
44694;SDS011;32845;59.422;17.930;2023-07-24T00:41:32;2.70;;;1.67;;
44694;SDS011;32845;59.422;17.930;2023-07-24T00:46:03;3.67;;;1.77;;
44694;SDS011;32845;59.422;17.930;2023-07-24T00:50:33;5.95;;;2.00;;
44694;SDS011;32845;59.422;17.930;2023-07-24T00:55:06;4.72;;;1.73;;
44694;SDS011;32845;59.422;17.930;2023-07-24T00:59:37;5.95;;;1.85;;
44694;SDS011;32845;59.422;17.930;2023-07-24T01:04:08;3.80;;;1.67;;
44694;SDS011;32845;59.422;17.930;2023-07-24T01:08:39;5.43;;;1.60;;
44694;SDS011;32845;59.422;17.930;2023-07-24T01:13:13;2.55;;;1.55;;
44694;SDS011;32845;59.422;17.930;2023-07-24T01:17:48;4.57;;;1.73;;
44694;SDS011;32845;59.422;17.930;2023-07-24T01:26:59;5.28;;;1.90;;
44694;SDS011;32845;59.422;17.930;2023-07-24T01:31:30;6.03;;;2.05;;
44694;SDS011;32845;59.422;17.930;2023-07-24T01:36:02;3.25;;;1.77;;
44694;SDS011;32845;59.422;17.930;2023-07-24T01:40:34;2.97;;;1.77;;
44694;SDS011;32845;59.422;17.930;2023-07-24T01:45:05;2.97;;;1.90;;
44694;SDS011;32845;59.422;17.930;2023-07-24T01:49:36;6.45;;;2.28;;
44694;SDS011;32845;59.422;17.930;2023-07-24T01:54:06;4.57;;;2.05;;
44694;SDS011;32845;59.422;17.930;2023-07-24T01:58:37;3.53;;;2.17;;
44694;SDS011;32845;59.422;17.930;2023-07-24T02:03:07;5.97;;;2.13;;
44694;SDS011;32845;59.422;17.930;2023-07-24T02:07:38;6.93;;;2.35;;
44694;SDS011;32845;59.422;17.930;2023-07-24T02:12:09;3.78;;;1.85;;
44694;SDS011;32845;59.422;17.930;2023-07-24T02:16:40;3.70;;;1.95;;
44694;SDS011;32845;59.422;17.930;2023-07-24T02:21:10;3.65;;;2.00;;
44694;SDS011;32845;59.422;17.930;2023-07-24T02:25:41;2.97;;;1.88;;
44694;SDS011;32845;59.422;17.930;2023-07-24T02:30:13;3.78;;;1.90;;
44694;SDS011;32845;59.422;17.930;2023-07-24T02:34:43;4.35;;;2.00;;
44694;SDS011;32845;59.422;17.930;2023-07-24T02:39:14;3.03;;;1.70;;
44694;SDS011;32845;59.422;17.930;2023-07-24T02:43:44;4.88;;;1.92;;
44694;SDS011;32845;59.422;17.930;2023-07-24T02:48:15;5.40;;;1.85;;
44694;SDS011;32845;59.422;17.930;2023-07-24T02:52:46;3.80;;;1.55;;
44694;SDS011;32845;59.422;17.930;2023-07-24T02:57:16;4.90;;;1.70;;
44694;SDS011;32845;59.422;17.930;2023-07-24T03:01:47;5.55;;;1.60;;
44694;SDS011;32845;59.422;17.930;2023-07-24T03:06:17;2.78;;;1.52;;
44694;SDS011;32845;59.422;17.930;2023-07-24T03:10:48;3.22;;;1.83;;
44694;SDS011;32845;59.422;17.930;2023-07-24T03:15:19;2.80;;;1.80;;
44694;SDS011;32845;59.422;17.930;2023-07-24T03:19:49;4.28;;;2.10;;
44694;SDS011;32845;59.422;17.930;2023-07-24T03:24:20;8.20;;;1.95;;
44694;SDS011;32845;59.422;17.930;2023-07-24T03:28:50;5.28;;;1.92;;
44694;SDS011;32845;59.422;17.930;2023-07-24T03:33:21;5.13;;;2.05;;
44694;SDS011;32845;59.422;17.930;2023-07-24T03:37:52;4.63;;;2.10;;
44694;SDS011;32845;59.422;17.930;2023-07-24T03:42:26;4.75;;;2.00;;
44694;SDS011;32845;59.422;17.930;2023-07-24T03:46:57;7.15;;;1.70;;
44694;SDS011;32845;59.422;17.930;2023-07-24T03:51:28;3.10;;;1.77;;
44694;SDS011;32845;59.422;17.930;2023-07-24T03:55:59;4.97;;;2.28;;
44694;SDS011;32845;59.422;17.930;2023-07-24T04:00:29;4.28;;;2.00;;
44694;SDS011;32845;59.422;17.930;2023-07-24T04:05:00;5.70;;;2.50;;
44694;SDS011;32845;59.422;17.930;2023-07-24T04:09:31;7.18;;;2.50;;
44694;SDS011;32845;59.422;17.930;2023-07-24T04:14:01;4.82;;;2.03;;
44694;SDS011;32845;59.422;17.930;2023-07-24T04:18:32;5.60;;;1.92;;
44694;SDS011;32845;59.422;17.930;2023-07-24T04:23:03;6.72;;;2.42;;
44694;SDS011;32845;59.422;17.930;2023-07-24T04:27:33;5.70;;;2.60;;
44694;SDS011;32845;59.422;17.930;2023-07-24T04:32:04;5.97;;;2.10;;
44694;SDS011;32845;59.422;17.930;2023-07-24T04:36:35;11.15;;;2.13;;
44694;SDS011;32845;59.422;17.930;2023-07-24T04:41:05;5.78;;;2.70;;
44694;SDS011;32845;59.422;17.930;2023-07-24T04:45:36;6.18;;;2.60;;
44694;SDS011;32845;59.422;17.930;2023-07-24T04:50:06;7.90;;;2.65;;
44694;SDS011;32845;59.422;17.930;2023-07-24T04:54:37;12.07;;;3.70;;
44694;SDS011;32845;59.422;17.930;2023-07-24T04:59:08;14.73;;;4.75;;
44694;SDS011;32845;59.422;17.930;2023-07-24T05:03:38;8.23;;;4.88;;
44694;SDS011;32845;59.422;17.930;2023-07-24T05:08:09;14.20;;;4.53;;
44694;SDS011;32845;59.422;17.930;2023-07-24T05:12:42;8.75;;;4.18;;
44694;SDS011;32845;59.422;17.930;2023-07-24T05:17:13;10.95;;;4.22;;
44694;SDS011;32845;59.422;17.930;2023-07-24T05:21:43;11.27;;;4.65;;
44694;SDS011;32845;59.422;17.930;2023-07-24T05:26:14;8.07;;;4.88;;
44694;SDS011;32845;59.422;17.930;2023-07-24T05:30:45;11.88;;;5.75;;
44694;SDS011;32845;59.422;17.930;2023-07-24T05:35:15;10.80;;;4.75;;
44694;SDS011;32845;59.422;17.930;2023-07-24T05:39:46;13.65;;;5.32;;
44694;SDS011;32845;59.422;17.930;2023-07-24T05:44:17;8.15;;;4.53;;
44694;SDS011;32845;59.422;17.930;2023-07-24T05:48:47;7.75;;;4.18;;
44694;SDS011;32845;59.422;17.930;2023-07-24T05:53:18;8.15;;;3.78;;
44694;SDS011;32845;59.422;17.930;2023-07-24T05:57:49;11.25;;;3.70;;
44694;SDS011;32845;59.422;17.930;2023-07-24T06:02:19;5.32;;;3.33;;
44694;SDS011;32845;59.422;17.930;2023-07-24T06:06:50;8.93;;;3.10;;
44694;SDS011;32845;59.422;17.930;2023-07-24T06:11:20;6.78;;;2.72;;
44694;SDS011;32845;59.422;17.930;2023-07-24T06:15:52;12.25;;;2.78;;
44694;SDS011;32845;59.422;17.930;2023-07-24T06:20:23;5.95;;;2.55;;
44694;SDS011;32845;59.422;17.930;2023-07-24T06:24:53;3.35;;;2.15;;
44694;SDS011;32845;59.422;17.930;2023-07-24T06:29:24;5.43;;;2.22;;
44694;SDS011;32845;59.422;17.930;2023-07-24T06:33:55;4.68;;;1.90;;
44694;SDS011;32845;59.422;17.930;2023-07-24T06:38:26;4.72;;;1.80;;
44694;SDS011;32845;59.422;17.930;2023-07-24T06:42:57;5.38;;;1.95;;
44694;SDS011;32845;59.422;17.930;2023-07-24T06:47:28;4.43;;;2.20;;
44694;SDS011;32845;59.422;17.930;2023-07-24T06:51:58;3.95;;;1.70;;
44694;SDS011;32845;59.422;17.930;2023-07-24T06:56:29;5.32;;;1.58;;
44694;SDS011;32845;59.422;17.930;2023-07-24T07:00:59;3.78;;;1.70;;
44694;SDS011;32845;59.422;17.930;2023-07-24T07:05:31;2.78;;;1.50;;
44694;SDS011;32845;59.422;17.930;2023-07-24T07:10:02;2.63;;;1.73;;
44694;SDS011;32845;59.422;17.930;2023-07-24T07:14:33;5.03;;;2.05;;
44694;SDS011;32845;59.422;17.930;2023-07-24T07:19:03;3.03;;;1.92;;
44694;SDS011;32845;59.422;17.930;2023-07-24T07:23:34;4.78;;;2.00;;
44694;SDS011;32845;59.422;17.930;2023-07-24T07:28:05;5.20;;;1.85;;
44694;SDS011;32845;59.422;17.930;2023-07-24T07:32:35;5.75;;;1.67;;
44694;SDS011;32845;59.422;17.930;2023-07-24T07:37:06;4.20;;;1.48;;
44694;SDS011;32845;59.422;17.930;2023-07-24T07:41:37;3.80;;;1.90;;
44694;SDS011;32845;59.422;17.930;2023-07-24T07:46:07;3.47;;;1.60;;
44694;SDS011;32845;59.422;17.930;2023-07-24T07:50:38;4.65;;;1.38;;
44694;SDS011;32845;59.422;17.930;2023-07-24T07:55:08;2.67;;;1.50;;
44694;SDS011;32845;59.422;17.930;2023-07-24T07:59:39;2.88;;;1.55;;
44694;SDS011;32845;59.422;17.930;2023-07-24T08:04:09;9.98;;;1.10;;
44694;SDS011;32845;59.422;17.930;2023-07-24T08:08:40;2.83;;;1.30;;
44694;SDS011;32845;59.422;17.930;2023-07-24T08:13:11;1.13;;;0.90;;
44694;SDS011;32845;59.422;17.930;2023-07-24T08:17:41;3.47;;;1.10;;
44694;SDS011;32845;59.422;17.930;2023-07-24T08:22:12;4.40;;;1.40;;
44694;SDS011;32845;59.422;17.930;2023-07-24T08:26:42;1.73;;;1.13;;
44694;SDS011;32845;59.422;17.930;2023-07-24T08:31:13;2.78;;;1.10;;
44694;SDS011;32845;59.422;17.930;2023-07-24T08:35:43;2.85;;;0.90;;
44694;SDS011;32845;59.422;17.930;2023-07-24T08:40:15;3.38;;;1.40;;
44694;SDS011;32845;59.422;17.930;2023-07-24T08:44:46;1.95;;;0.80;;
44694;SDS011;32845;59.422;17.930;2023-07-24T08:49:17;2.15;;;1.10;;
44694;SDS011;32845;59.422;17.930;2023-07-24T08:53:49;3.92;;;1.80;;
44694;SDS011;32845;59.422;17.930;2023-07-24T08:58:20;7.72;;;1.00;;
44694;SDS011;32845;59.422;17.930;2023-07-24T09:02:50;2.13;;;1.20;;
44694;SDS011;32845;59.422;17.930;2023-07-24T09:07:21;1.58;;;0.95;;
44694;SDS011;32845;59.422;17.930;2023-07-24T09:11:52;1.38;;;0.73;;
44694;SDS011;32845;59.422;17.930;2023-07-24T09:16:24;5.10;;;0.93;;
44694;SDS011;32845;59.422;17.930;2023-07-24T09:20:55;6.60;;;1.25;;
44694;SDS011;32845;59.422;17.930;2023-07-24T09:25:33;4.70;;;1.00;;
44694;SDS011;32845;59.422;17.930;2023-07-24T09:30:11;1.20;;;0.80;;
44694;SDS011;32845;59.422;17.930;2023-07-24T09:34:43;3.70;;;0.80;;
44694;SDS011;32845;59.422;17.930;2023-07-24T09:39:14;1.48;;;0.80;;
44694;SDS011;32845;59.422;17.930;2023-07-24T09:43:44;3.08;;;0.80;;
44694;SDS011;32845;59.422;17.930;2023-07-24T09:48:16;2.30;;;0.80;;
44694;SDS011;32845;59.422;17.930;2023-07-24T09:52:47;2.25;;;0.88;;
44694;SDS011;32845;59.422;17.930;2023-07-24T09:57:19;1.75;;;0.82;;
44694;SDS011;32845;59.422;17.930;2023-07-24T10:01:50;2.22;;;0.70;;
44694;SDS011;32845;59.422;17.930;2023-07-24T10:06:22;3.50;;;0.98;;
44694;SDS011;32845;59.422;17.930;2023-07-24T10:10:53;4.22;;;1.00;;
44694;SDS011;32845;59.422;17.930;2023-07-24T10:15:25;2.70;;;0.68;;
44694;SDS011;32845;59.422;17.930;2023-07-24T10:20:01;1.10;;;0.60;;
44694;SDS011;32845;59.422;17.930;2023-07-24T10:24:33;4.95;;;0.95;;
44694;SDS011;32845;59.422;17.930;2023-07-24T10:29:04;2.53;;;0.90;;
44694;SDS011;32845;59.422;17.930;2023-07-24T10:33:43;1.77;;;0.75;;
44694;SDS011;32845;59.422;17.930;2023-07-24T10:38:15;1.52;;;0.85;;
44694;SDS011;32845;59.422;17.930;2023-07-24T10:42:47;3.22;;;0.80;;
44694;SDS011;32845;59.422;17.930;2023-07-24T10:47:28;1.85;;;0.80;;
44694;SDS011;32845;59.422;17.930;2023-07-24T10:51:59;2.80;;;1.20;;
44694;SDS011;32845;59.422;17.930;2023-07-24T10:56:29;1.38;;;0.80;;
44694;SDS011;32845;59.422;17.930;2023-07-24T11:01:02;1.20;;;0.73;;
44694;SDS011;32845;59.422;17.930;2023-07-24T11:05:34;2.22;;;0.90;;
44694;SDS011;32845;59.422;17.930;2023-07-24T11:10:15;2.97;;;1.33;;
44694;SDS011;32845;59.422;17.930;2023-07-24T11:14:49;3.65;;;0.90;;
44694;SDS011;32845;59.422;17.930;2023-07-24T11:19:24;1.80;;;0.90;;
44694;SDS011;32845;59.422;17.930;2023-07-24T11:23:55;1.20;;;0.70;;
44694;SDS011;32845;59.422;17.930;2023-07-24T11:28:26;3.50;;;1.00;;
44694;SDS011;32845;59.422;17.930;2023-07-24T11:33:01;0.80;;;0.60;;
44694;SDS011;32845;59.422;17.930;2023-07-24T11:37:33;1.27;;;0.63;;
44694;SDS011;32845;59.422;17.930;2023-07-24T11:42:04;1.13;;;0.88;;
44694;SDS011;32845;59.422;17.930;2023-07-24T11:46:35;1.25;;;0.80;;
44694;SDS011;32845;59.422;17.930;2023-07-24T11:51:06;1.75;;;0.98;;
44694;SDS011;32845;59.422;17.930;2023-07-24T11:55:37;1.50;;;0.75;;
44694;SDS011;32845;59.422;17.930;2023-07-24T12:00:18;5.20;;;2.00;;
44694;SDS011;32845;59.422;17.930;2023-07-24T12:04:54;5.25;;;1.00;;
44694;SDS011;32845;59.422;17.930;2023-07-24T12:09:31;1.73;;;0.75;;
44694;SDS011;32845;59.422;17.930;2023-07-24T12:14:01;1.55;;;0.80;;
44694;SDS011;32845;59.422;17.930;2023-07-24T12:18:32;2.40;;;1.00;;
44694;SDS011;32845;59.422;17.930;2023-07-24T12:23:03;2.63;;;0.93;;
44694;SDS011;32845;59.422;17.930;2023-07-24T12:27:33;2.42;;;1.20;;
44694;SDS011;32845;59.422;17.930;2023-07-24T12:32:04;3.00;;;0.98;;
44694;SDS011;32845;59.422;17.930;2023-07-24T12:36:35;1.65;;;0.90;;
44694;SDS011;32845;59.422;17.930;2023-07-24T12:41:05;1.85;;;0.93;;
44694;SDS011;32845;59.422;17.930;2023-07-24T12:45:36;3.22;;;0.70;;
44694;SDS011;32845;59.422;17.930;2023-07-24T12:50:07;1.60;;;0.82;;
44694;SDS011;32845;59.422;17.930;2023-07-24T12:54:38;1.25;;;0.60;;
44694;SDS011;32845;59.422;17.930;2023-07-24T12:59:08;2.40;;;0.73;;
44694;SDS011;32845;59.422;17.930;2023-07-24T13:03:39;1.27;;;0.60;;
44694;SDS011;32845;59.422;17.930;2023-07-24T13:08:09;1.33;;;0.60;;
44694;SDS011;32845;59.422;17.930;2023-07-24T13:12:40;0.40;;;0.40;;
44694;SDS011;32845;59.422;17.930;2023-07-24T13:17:10;4.05;;;0.80;;
44694;SDS011;32845;59.422;17.930;2023-07-24T13:21:41;2.03;;;0.60;;
44694;SDS011;32845;59.422;17.930;2023-07-24T13:26:13;0.90;;;0.60;;
44694;SDS011;32845;59.422;17.930;2023-07-24T13:30:44;2.17;;;0.70;;
44694;SDS011;32845;59.422;17.930;2023-07-24T13:35:15;2.97;;;0.70;;
44694;SDS011;32845;59.422;17.930;2023-07-24T13:39:46;1.05;;;0.50;;
44694;SDS011;32845;59.422;17.930;2023-07-24T13:44:17;1.35;;;0.50;;
44694;SDS011;32845;59.422;17.930;2023-07-24T13:48:48;2.88;;;0.60;;
44694;SDS011;32845;59.422;17.930;2023-07-24T13:53:18;0.93;;;0.60;;
44694;SDS011;32845;59.422;17.930;2023-07-24T13:57:49;1.42;;;0.60;;
44694;SDS011;32845;59.422;17.930;2023-07-24T14:02:20;0.73;;;0.50;;
44694;SDS011;32845;59.422;17.930;2023-07-24T14:06:50;1.98;;;1.00;;
44694;SDS011;32845;59.422;17.930;2023-07-24T14:11:21;1.55;;;0.60;;
44694;SDS011;32845;59.422;17.930;2023-07-24T14:15:52;2.47;;;0.75;;
44694;SDS011;32845;59.422;17.930;2023-07-24T14:20:22;4.53;;;1.00;;
44694;SDS011;32845;59.422;17.930;2023-07-24T14:24:53;3.60;;;0.88;;
44694;SDS011;32845;59.422;17.930;2023-07-24T14:29:23;0.75;;;0.47;;
44694;SDS011;32845;59.422;17.930;2023-07-24T14:33:54;1.52;;;0.60;;
44694;SDS011;32845;59.422;17.930;2023-07-24T14:38:25;0.90;;;0.57;;
44694;SDS011;32845;59.422;17.930;2023-07-24T14:42:55;0.90;;;0.68;;
44694;SDS011;32845;59.422;17.930;2023-07-24T14:47:26;1.55;;;0.45;;
44694;SDS011;32845;59.422;17.930;2023-07-24T14:51:57;4.07;;;0.82;;
44694;SDS011;32845;59.422;17.930;2023-07-24T14:56:27;1.00;;;0.65;;
44694;SDS011;32845;59.422;17.930;2023-07-24T15:00:58;2.58;;;0.70;;
44694;SDS011;32845;59.422;17.930;2023-07-24T15:05:28;1.08;;;0.85;;
44694;SDS011;32845;59.422;17.930;2023-07-24T15:09:59;1.45;;;0.60;;
44694;SDS011;32845;59.422;17.930;2023-07-24T15:14:30;1.00;;;0.65;;
44694;SDS011;32845;59.422;17.930;2023-07-24T15:19:00;3.53;;;0.63;;
44694;SDS011;32845;59.422;17.930;2023-07-24T15:23:31;1.48;;;0.68;;
44694;SDS011;32845;59.422;17.930;2023-07-24T15:28:01;2.50;;;0.60;;
44694;SDS011;32845;59.422;17.930;2023-07-24T15:32:32;0.60;;;0.47;;
44694;SDS011;32845;59.422;17.930;2023-07-24T15:37:03;1.00;;;0.70;;
44694;SDS011;32845;59.422;17.930;2023-07-24T15:41:33;3.17;;;0.70;;
44694;SDS011;32845;59.422;17.930;2023-07-24T15:46:04;1.23;;;0.70;;
44694;SDS011;32845;59.422;17.930;2023-07-24T15:50:34;1.77;;;0.55;;
44694;SDS011;32845;59.422;17.930;2023-07-24T15:55:05;2.72;;;0.80;;
44694;SDS011;32845;59.422;17.930;2023-07-24T15:59:36;0.90;;;0.43;;
44694;SDS011;32845;59.422;17.930;2023-07-24T16:04:06;1.13;;;0.30;;
44694;SDS011;32845;59.422;17.930;2023-07-24T16:08:37;0.70;;;0.60;;
44694;SDS011;32845;59.422;17.930;2023-07-24T16:13:08;1.95;;;0.70;;
44694;SDS011;32845;59.422;17.930;2023-07-24T16:17:38;1.20;;;0.70;;
44694;SDS011;32845;59.422;17.930;2023-07-24T16:22:09;0.98;;;0.70;;
44694;SDS011;32845;59.422;17.930;2023-07-24T16:26:39;1.17;;;0.70;;
44694;SDS011;32845;59.422;17.930;2023-07-24T16:31:10;1.63;;;0.85;;
44694;SDS011;32845;59.422;17.930;2023-07-24T16:35:41;1.45;;;0.70;;
44694;SDS011;32845;59.422;17.930;2023-07-24T16:40:11;3.58;;;0.90;;
44694;SDS011;32845;59.422;17.930;2023-07-24T16:44:42;1.67;;;0.80;;
44694;SDS011;32845;59.422;17.930;2023-07-24T16:49:13;2.03;;;1.02;;
44694;SDS011;32845;59.422;17.930;2023-07-24T16:53:44;1.65;;;0.82;;
44694;SDS011;32845;59.422;17.930;2023-07-24T16:58:14;6.43;;;0.93;;
44694;SDS011;32845;59.422;17.930;2023-07-24T17:02:45;2.35;;;0.85;;
44694;SDS011;32845;59.422;17.930;2023-07-24T17:07:15;3.83;;;1.33;;
44694;SDS011;32845;59.422;17.930;2023-07-24T17:11:46;1.50;;;0.90;;
44694;SDS011;32845;59.422;17.930;2023-07-24T17:16:17;1.63;;;0.80;;
44694;SDS011;32845;59.422;17.930;2023-07-24T17:20:48;4.40;;;1.02;;
44694;SDS011;32845;59.422;17.930;2023-07-24T17:25:20;1.75;;;0.80;;
44694;SDS011;32845;59.422;17.930;2023-07-24T17:29:50;1.13;;;0.68;;
44694;SDS011;32845;59.422;17.930;2023-07-24T17:34:21;0.93;;;0.73;;
44694;SDS011;32845;59.422;17.930;2023-07-24T17:38:51;2.80;;;0.95;;
44694;SDS011;32845;59.422;17.930;2023-07-24T17:43:22;1.70;;;0.77;;
44694;SDS011;32845;59.422;17.930;2023-07-24T17:47:52;1.30;;;0.90;;
44694;SDS011;32845;59.422;17.930;2023-07-24T17:52:23;2.72;;;1.10;;
44694;SDS011;32845;59.422;17.930;2023-07-24T17:56:54;3.90;;;0.98;;
44694;SDS011;32845;59.422;17.930;2023-07-24T18:01:27;2.63;;;0.90;;
44694;SDS011;32845;59.422;17.930;2023-07-24T18:05:58;1.48;;;0.80;;
44694;SDS011;32845;59.422;17.930;2023-07-24T18:10:30;2.17;;;1.10;;
44694;SDS011;32845;59.422;17.930;2023-07-24T18:15:00;0.90;;;0.70;;
44694;SDS011;32845;59.422;17.930;2023-07-24T18:19:31;1.50;;;0.95;;
44694;SDS011;32845;59.422;17.930;2023-07-24T18:24:02;3.80;;;0.90;;
44694;SDS011;32845;59.422;17.930;2023-07-24T18:28:34;3.42;;;0.80;;
44694;SDS011;32845;59.422;17.930;2023-07-24T18:33:05;1.40;;;0.60;;
44694;SDS011;32845;59.422;17.930;2023-07-24T18:37:36;2.65;;;0.60;;
44694;SDS011;32845;59.422;17.930;2023-07-24T18:42:06;1.35;;;0.65;;
44694;SDS011;32845;59.422;17.930;2023-07-24T18:46:37;1.08;;;0.40;;
44694;SDS011;32845;59.422;17.930;2023-07-24T18:51:07;1.58;;;0.50;;
44694;SDS011;32845;59.422;17.930;2023-07-24T18:55:38;1.27;;;0.70;;
44694;SDS011;32845;59.422;17.930;2023-07-24T19:00:10;2.35;;;0.60;;
44694;SDS011;32845;59.422;17.930;2023-07-24T19:04:40;1.23;;;0.93;;
44694;SDS011;32845;59.422;17.930;2023-07-24T19:09:11;2.15;;;0.68;;
44694;SDS011;32845;59.422;17.930;2023-07-24T19:13:42;0.40;;;0.40;;
44694;SDS011;32845;59.422;17.930;2023-07-24T19:18:12;3.47;;;0.50;;
44694;SDS011;32845;59.422;17.930;2023-07-24T19:22:43;4.13;;;0.65;;
44694;SDS011;32845;59.422;17.930;2023-07-24T19:27:13;1.25;;;0.55;;
44694;SDS011;32845;59.422;17.930;2023-07-24T19:31:44;2.17;;;0.70;;
44694;SDS011;32845;59.422;17.930;2023-07-24T19:36:15;3.60;;;0.73;;
44694;SDS011;32845;59.422;17.930;2023-07-24T19:40:53;3.50;;;0.90;;
44694;SDS011;32845;59.422;17.930;2023-07-24T19:45:27;1.80;;;0.80;;
44694;SDS011;32845;59.422;17.930;2023-07-24T19:49:58;1.73;;;0.90;;
44694;SDS011;32845;59.422;17.930;2023-07-24T19:54:28;1.45;;;0.90;;
44694;SDS011;32845;59.422;17.930;2023-07-24T19:58:59;2.45;;;0.80;;
44694;SDS011;32845;59.422;17.930;2023-07-24T20:03:30;1.40;;;0.80;;
44694;SDS011;32845;59.422;17.930;2023-07-24T20:08:01;2.88;;;1.10;;
44694;SDS011;32845;59.422;17.930;2023-07-24T20:12:31;3.78;;;0.90;;
44694;SDS011;32845;59.422;17.930;2023-07-24T20:17:02;7.20;;;1.25;;
44694;SDS011;32845;59.422;17.930;2023-07-24T20:21:33;2.65;;;1.20;;
44694;SDS011;32845;59.422;17.930;2023-07-24T20:26:03;4.18;;;2.63;;
44694;SDS011;32845;59.422;17.930;2023-07-24T20:30:34;3.95;;;1.10;;
44694;SDS011;32845;59.422;17.930;2023-07-24T20:35:05;2.38;;;1.35;;
44694;SDS011;32845;59.422;17.930;2023-07-24T20:39:36;2.15;;;1.42;;
44694;SDS011;32845;59.422;17.930;2023-07-24T20:44:07;3.28;;;1.20;;
44694;SDS011;32845;59.422;17.930;2023-07-24T20:48:38;4.25;;;1.60;;
44694;SDS011;32845;59.422;17.930;2023-07-24T20:53:09;4.82;;;1.20;;
44694;SDS011;32845;59.422;17.930;2023-07-24T20:57:39;3.22;;;1.48;;
44694;SDS011;32845;59.422;17.930;2023-07-24T21:02:10;2.75;;;1.30;;
44694;SDS011;32845;59.422;17.930;2023-07-24T21:06:41;6.18;;;1.55;;
44694;SDS011;32845;59.422;17.930;2023-07-24T21:11:12;5.10;;;1.63;;
44694;SDS011;32845;59.422;17.930;2023-07-24T21:15:42;2.70;;;1.40;;
44694;SDS011;32845;59.422;17.930;2023-07-24T21:20:13;3.10;;;1.90;;
44694;SDS011;32845;59.422;17.930;2023-07-24T21:24:44;3.55;;;1.77;;
44694;SDS011;32845;59.422;17.930;2023-07-24T21:29:15;2.08;;;1.67;;
44694;SDS011;32845;59.422;17.930;2023-07-24T21:33:45;4.30;;;1.88;;
44694;SDS011;32845;59.422;17.930;2023-07-24T21:38:16;5.72;;;2.00;;
44694;SDS011;32845;59.422;17.930;2023-07-24T21:42:46;9.68;;;2.10;;
44694;SDS011;32845;59.422;17.930;2023-07-24T21:47:17;3.03;;;1.60;;
44694;SDS011;32845;59.422;17.930;2023-07-24T21:51:48;4.25;;;2.00;;
44694;SDS011;32845;59.422;17.930;2023-07-24T21:56:18;3.10;;;1.90;;
44694;SDS011;32845;59.422;17.930;2023-07-24T22:00:49;4.65;;;2.58;;
44694;SDS011;32845;59.422;17.930;2023-07-24T22:05:19;6.55;;;2.65;;
44694;SDS011;32845;59.422;17.930;2023-07-24T22:09:50;5.53;;;2.30;;
44694;SDS011;32845;59.422;17.930;2023-07-24T22:14:21;5.45;;;2.30;;
44694;SDS011;32845;59.422;17.930;2023-07-24T22:18:51;8.70;;;2.50;;
44694;SDS011;32845;59.422;17.930;2023-07-24T22:23:22;5.05;;;2.50;;
44694;SDS011;32845;59.422;17.930;2023-07-24T22:27:54;11.15;;;3.80;;
44694;SDS011;32845;59.422;17.930;2023-07-24T22:32:24;9.52;;;4.85;;
44694;SDS011;32845;59.422;17.930;2023-07-24T22:36:55;9.90;;;4.35;;
44694;SDS011;32845;59.422;17.930;2023-07-24T22:41:25;14.52;;;4.65;;
44694;SDS011;32845;59.422;17.930;2023-07-24T22:45:56;9.70;;;5.57;;
44694;SDS011;32845;59.422;17.930;2023-07-24T22:50:26;14.30;;;5.93;;
44694;SDS011;32845;59.422;17.930;2023-07-24T22:54:57;9.05;;;5.20;;
44694;SDS011;32845;59.422;17.930;2023-07-24T22:59:28;11.45;;;5.95;;
44694;SDS011;32845;59.422;17.930;2023-07-24T23:03:58;14.70;;;5.90;;
44694;SDS011;32845;59.422;17.930;2023-07-24T23:08:29;9.93;;;5.43;;
44694;SDS011;32845;59.422;17.930;2023-07-24T23:13:00;11.60;;;5.90;;
44694;SDS011;32845;59.422;17.930;2023-07-24T23:17:30;11.68;;;6.10;;
44694;SDS011;32845;59.422;17.930;2023-07-24T23:22:01;11.07;;;5.60;;
44694;SDS011;32845;59.422;17.930;2023-07-24T23:26:31;8.40;;;5.45;;
44694;SDS011;32845;59.422;17.930;2023-07-24T23:31:02;9.25;;;5.55;;
44694;SDS011;32845;59.422;17.930;2023-07-24T23:35:34;10.68;;;6.18;;
44694;SDS011;32845;59.422;17.930;2023-07-24T23:40:04;11.10;;;5.78;;
44694;SDS011;32845;59.422;17.930;2023-07-24T23:44:35;9.32;;;5.55;;
44694;SDS011;32845;59.422;17.930;2023-07-24T23:49:06;10.75;;;5.38;;
44694;SDS011;32845;59.422;17.930;2023-07-24T23:53:36;14.27;;;5.63;;
44694;SDS011;32845;59.422;17.930;2023-07-24T23:58:07;10.13;;;5.40;;
